sensor_id;sensor_type;location;lat;lon;timestamp;P1;durP1;ratioP1;P2;durP2;ratioP2
55190;SDS011;41070;50.360;18.742;2024-03-02T00:00:30;56.70;;;27.40;;
55190;SDS011;41070;50.360;18.742;2024-03-02T00:03:17;59.40;;;30.70;;
55190;SDS011;41070;50.360;18.742;2024-03-02T00:05:48;60.90;;;32.10;;
55190;SDS011;41070;50.360;18.742;2024-03-02T00:08:27;58.40;;;29.20;;
55190;SDS011;41070;50.360;18.742;2024-03-02T00:11:00;65.70;;;30.60;;
55190;SDS011;41070;50.360;18.742;2024-03-02T00:13:46;65.60;;;31.90;;
55190;SDS011;41070;50.360;18.742;2024-03-02T00:16:13;67.90;;;35.50;;
55190;SDS011;41070;50.360;18.742;2024-03-02T00:18:39;69.00;;;36.20;;
55190;SDS011;41070;50.360;18.742;2024-03-02T00:21:07;71.20;;;38.50;;
55190;SDS011;41070;50.360;18.742;2024-03-02T00:23:57;70.30;;;36.40;;
55190;SDS011;41070;50.360;18.742;2024-03-02T00:29:11;67.70;;;34.60;;
55190;SDS011;41070;50.360;18.742;2024-03-02T00:31:42;66.20;;;32.10;;
55190;SDS011;41070;50.360;18.742;2024-03-02T00:34:09;58.50;;;30.60;;
55190;SDS011;41070;50.360;18.742;2024-03-02T00:36:42;63.40;;;30.60;;
55190;SDS011;41070;50.360;18.742;2024-03-02T00:39:10;66.80;;;31.70;;
55190;SDS011;41070;50.360;18.742;2024-03-02T00:41:40;58.00;;;30.20;;
55190;SDS011;41070;50.360;18.742;2024-03-02T00:44:14;63.00;;;30.40;;
55190;SDS011;41070;50.360;18.742;2024-03-02T00:46:42;65.20;;;30.90;;
55190;SDS011;41070;50.360;18.742;2024-03-02T00:49:14;62.30;;;29.20;;
55190;SDS011;41070;50.360;18.742;2024-03-02T00:51:46;63.80;;;30.70;;
55190;SDS011;41070;50.360;18.742;2024-03-02T00:54:15;63.30;;;29.50;;
55190;SDS011;41070;50.360;18.742;2024-03-02T00:56:49;65.10;;;29.80;;
55190;SDS011;41070;50.360;18.742;2024-03-02T00:59:17;53.40;;;27.50;;
55190;SDS011;41070;50.360;18.742;2024-03-02T01:01:44;57.70;;;30.50;;
55190;SDS011;41070;50.360;18.742;2024-03-02T01:04:11;61.90;;;31.00;;
55190;SDS011;41070;50.360;18.742;2024-03-02T01:06:39;54.00;;;27.90;;
55190;SDS011;41070;50.360;18.742;2024-03-02T01:09:06;63.80;;;31.90;;
55190;SDS011;41070;50.360;18.742;2024-03-02T01:11:34;65.90;;;28.30;;
55190;SDS011;41070;50.360;18.742;2024-03-02T01:14:01;59.30;;;29.90;;
55190;SDS011;41070;50.360;18.742;2024-03-02T01:16:32;66.90;;;30.20;;
55190;SDS011;41070;50.360;18.742;2024-03-02T01:18:59;66.40;;;31.10;;
55190;SDS011;41070;50.360;18.742;2024-03-02T01:21:25;58.50;;;29.10;;
55190;SDS011;41070;50.360;18.742;2024-03-02T01:23:54;58.80;;;30.90;;
55190;SDS011;41070;50.360;18.742;2024-03-02T01:26:22;64.40;;;30.00;;
55190;SDS011;41070;50.360;18.742;2024-03-02T01:28:48;56.70;;;28.40;;
55190;SDS011;41070;50.360;18.742;2024-03-02T01:31:16;59.30;;;28.70;;
55190;SDS011;41070;50.360;18.742;2024-03-02T01:33:43;62.90;;;31.30;;
55190;SDS011;41070;50.360;18.742;2024-03-02T01:36:10;46.30;;;23.20;;
55190;SDS011;41070;50.360;18.742;2024-03-02T01:38:37;45.80;;;25.30;;
55190;SDS011;41070;50.360;18.742;2024-03-02T01:41:05;53.10;;;25.30;;
55190;SDS011;41070;50.360;18.742;2024-03-02T01:43:34;53.90;;;29.20;;
55190;SDS011;41070;50.360;18.742;2024-03-02T01:46:01;50.90;;;25.30;;
55190;SDS011;41070;50.360;18.742;2024-03-02T01:48:28;53.10;;;26.70;;
55190;SDS011;41070;50.360;18.742;2024-03-02T01:50:54;54.60;;;28.50;;
55190;SDS011;41070;50.360;18.742;2024-03-02T01:53:21;49.60;;;26.10;;
55190;SDS011;41070;50.360;18.742;2024-03-02T01:55:48;57.50;;;27.60;;
55190;SDS011;41070;50.360;18.742;2024-03-02T01:58:15;53.60;;;27.00;;
55190;SDS011;41070;50.360;18.742;2024-03-02T02:00:42;56.40;;;28.90;;
55190;SDS011;41070;50.360;18.742;2024-03-02T02:03:08;52.70;;;27.00;;
55190;SDS011;41070;50.360;18.742;2024-03-02T02:05:35;62.80;;;30.30;;
55190;SDS011;41070;50.360;18.742;2024-03-02T02:08:02;54.80;;;28.50;;
55190;SDS011;41070;50.360;18.742;2024-03-02T02:10:29;52.00;;;25.30;;
55190;SDS011;41070;50.360;18.742;2024-03-02T02:12:56;47.20;;;24.90;;
55190;SDS011;41070;50.360;18.742;2024-03-02T02:15:24;55.20;;;27.20;;
55190;SDS011;41070;50.360;18.742;2024-03-02T02:17:52;42.60;;;23.40;;
55190;SDS011;41070;50.360;18.742;2024-03-02T02:20:19;48.90;;;25.50;;
55190;SDS011;41070;50.360;18.742;2024-03-02T02:23:00;57.30;;;27.80;;
55190;SDS011;41070;50.360;18.742;2024-03-02T02:25:28;50.80;;;27.80;;
55190;SDS011;41070;50.360;18.742;2024-03-02T02:27:55;45.70;;;24.40;;
55190;SDS011;41070;50.360;18.742;2024-03-02T02:30:29;52.80;;;27.10;;
55190;SDS011;41070;50.360;18.742;2024-03-02T02:32:58;52.90;;;27.00;;
55190;SDS011;41070;50.360;18.742;2024-03-02T02:35:27;53.60;;;28.20;;
55190;SDS011;41070;50.360;18.742;2024-03-02T02:37:55;53.70;;;27.20;;
55190;SDS011;41070;50.360;18.742;2024-03-02T02:40:24;49.50;;;25.80;;
55190;SDS011;41070;50.360;18.742;2024-03-02T02:42:51;49.10;;;25.70;;
55190;SDS011;41070;50.360;18.742;2024-03-02T02:45:19;52.90;;;25.30;;
55190;SDS011;41070;50.360;18.742;2024-03-02T02:47:46;47.50;;;25.50;;
55190;SDS011;41070;50.360;18.742;2024-03-02T02:50:14;48.70;;;25.40;;
55190;SDS011;41070;50.360;18.742;2024-03-02T02:52:44;48.20;;;24.70;;
55190;SDS011;41070;50.360;18.742;2024-03-02T02:55:15;49.20;;;25.50;;
55190;SDS011;41070;50.360;18.742;2024-03-02T02:57:47;50.00;;;25.00;;
55190;SDS011;41070;50.360;18.742;2024-03-02T03:00:15;50.40;;;26.60;;
55190;SDS011;41070;50.360;18.742;2024-03-02T03:02:43;46.90;;;25.90;;
55190;SDS011;41070;50.360;18.742;2024-03-02T03:05:14;50.70;;;26.20;;
55190;SDS011;41070;50.360;18.742;2024-03-02T03:07:41;44.90;;;24.90;;
55190;SDS011;41070;50.360;18.742;2024-03-02T03:10:10;54.00;;;27.50;;
55190;SDS011;41070;50.360;18.742;2024-03-02T03:12:36;50.80;;;24.60;;
55190;SDS011;41070;50.360;18.742;2024-03-02T03:15:03;55.00;;;26.50;;
55190;SDS011;41070;50.360;18.742;2024-03-02T03:17:32;46.40;;;25.00;;
55190;SDS011;41070;50.360;18.742;2024-03-02T03:19:59;53.90;;;27.90;;
55190;SDS011;41070;50.360;18.742;2024-03-02T03:22:26;48.60;;;27.30;;
55190;SDS011;41070;50.360;18.742;2024-03-02T03:24:53;48.40;;;25.60;;
55190;SDS011;41070;50.360;18.742;2024-03-02T03:27:20;47.60;;;25.30;;
55190;SDS011;41070;50.360;18.742;2024-03-02T03:29:48;44.50;;;23.40;;
55190;SDS011;41070;50.360;18.742;2024-03-02T03:32:14;55.10;;;28.30;;
55190;SDS011;41070;50.360;18.742;2024-03-02T03:34:42;52.40;;;26.50;;
55190;SDS011;41070;50.360;18.742;2024-03-02T03:37:09;49.00;;;23.90;;
55190;SDS011;41070;50.360;18.742;2024-03-02T03:39:36;48.80;;;25.90;;
55190;SDS011;41070;50.360;18.742;2024-03-02T03:42:03;46.30;;;23.30;;
55190;SDS011;41070;50.360;18.742;2024-03-02T03:44:30;41.70;;;23.90;;
55190;SDS011;41070;50.360;18.742;2024-03-02T03:46:57;50.20;;;25.60;;
55190;SDS011;41070;50.360;18.742;2024-03-02T03:49:23;46.10;;;25.40;;
55190;SDS011;41070;50.360;18.742;2024-03-02T03:51:50;46.20;;;25.80;;
55190;SDS011;41070;50.360;18.742;2024-03-02T03:54:17;43.50;;;23.40;;
55190;SDS011;41070;50.360;18.742;2024-03-02T03:56:44;43.70;;;24.40;;
55190;SDS011;41070;50.360;18.742;2024-03-02T03:59:10;44.90;;;25.20;;
55190;SDS011;41070;50.360;18.742;2024-03-02T04:01:37;44.60;;;23.80;;
55190;SDS011;41070;50.360;18.742;2024-03-02T04:04:04;45.20;;;23.40;;
55190;SDS011;41070;50.360;18.742;2024-03-02T04:06:30;48.50;;;24.00;;
55190;SDS011;41070;50.360;18.742;2024-03-02T04:08:57;45.60;;;25.30;;
55190;SDS011;41070;50.360;18.742;2024-03-02T04:11:25;45.40;;;24.20;;
55190;SDS011;41070;50.360;18.742;2024-03-02T04:13:52;47.70;;;25.30;;
55190;SDS011;41070;50.360;18.742;2024-03-02T04:16:19;52.70;;;26.00;;
55190;SDS011;41070;50.360;18.742;2024-03-02T04:18:46;42.40;;;24.30;;
55190;SDS011;41070;50.360;18.742;2024-03-02T04:21:13;45.10;;;24.10;;
55190;SDS011;41070;50.360;18.742;2024-03-02T04:23:40;40.50;;;22.30;;
55190;SDS011;41070;50.360;18.742;2024-03-02T04:26:08;39.30;;;22.40;;
55190;SDS011;41070;50.360;18.742;2024-03-02T04:28:35;40.70;;;22.40;;
55190;SDS011;41070;50.360;18.742;2024-03-02T04:31:02;47.10;;;23.20;;
55190;SDS011;41070;50.360;18.742;2024-03-02T04:33:29;41.90;;;21.50;;
55190;SDS011;41070;50.360;18.742;2024-03-02T04:35:56;45.20;;;24.10;;
55190;SDS011;41070;50.360;18.742;2024-03-02T04:38:23;46.90;;;23.20;;
55190;SDS011;41070;50.360;18.742;2024-03-02T04:40:50;41.50;;;22.20;;
55190;SDS011;41070;50.360;18.742;2024-03-02T04:43:24;46.90;;;23.70;;
55190;SDS011;41070;50.360;18.742;2024-03-02T04:46:00;44.20;;;22.90;;
55190;SDS011;41070;50.360;18.742;2024-03-02T04:48:26;39.10;;;23.20;;
55190;SDS011;41070;50.360;18.742;2024-03-02T04:50:53;49.80;;;23.70;;
55190;SDS011;41070;50.360;18.742;2024-03-02T04:53:20;48.60;;;24.60;;
55190;SDS011;41070;50.360;18.742;2024-03-02T04:55:47;47.30;;;22.50;;
55190;SDS011;41070;50.360;18.742;2024-03-02T04:58:45;41.20;;;21.70;;
55190;SDS011;41070;50.360;18.742;2024-03-02T05:01:12;41.80;;;21.10;;
55190;SDS011;41070;50.360;18.742;2024-03-02T05:03:38;40.00;;;20.60;;
55190;SDS011;41070;50.360;18.742;2024-03-02T05:06:05;40.10;;;20.20;;
55190;SDS011;41070;50.360;18.742;2024-03-02T05:08:32;48.10;;;22.30;;
55190;SDS011;41070;50.360;18.742;2024-03-02T05:10:59;47.90;;;23.30;;
55190;SDS011;41070;50.360;18.742;2024-03-02T05:13:47;43.30;;;23.60;;
55190;SDS011;41070;50.360;18.742;2024-03-02T05:16:14;44.00;;;23.90;;
55190;SDS011;41070;50.360;18.742;2024-03-02T05:18:41;46.00;;;24.90;;
55190;SDS011;41070;50.360;18.742;2024-03-02T05:21:07;43.80;;;22.50;;
55190;SDS011;41070;50.360;18.742;2024-03-02T05:23:34;43.20;;;21.60;;
55190;SDS011;41070;50.360;18.742;2024-03-02T05:26:05;40.40;;;22.00;;
55190;SDS011;41070;50.360;18.742;2024-03-02T05:28:32;43.50;;;24.00;;
55190;SDS011;41070;50.360;18.742;2024-03-02T05:30:58;41.00;;;21.40;;
55190;SDS011;41070;50.360;18.742;2024-03-02T05:33:25;44.60;;;21.30;;
55190;SDS011;41070;50.360;18.742;2024-03-02T05:35:54;33.30;;;18.40;;
55190;SDS011;41070;50.360;18.742;2024-03-02T05:38:21;36.20;;;19.80;;
55190;SDS011;41070;50.360;18.742;2024-03-02T05:40:48;38.00;;;20.40;;
55190;SDS011;41070;50.360;18.742;2024-03-02T05:43:15;39.70;;;20.50;;
55190;SDS011;41070;50.360;18.742;2024-03-02T05:45:42;38.40;;;22.50;;
55190;SDS011;41070;50.360;18.742;2024-03-02T05:48:09;42.20;;;21.30;;
55190;SDS011;41070;50.360;18.742;2024-03-02T05:50:35;43.40;;;22.30;;
55190;SDS011;41070;50.360;18.742;2024-03-02T05:53:02;38.80;;;21.20;;
55190;SDS011;41070;50.360;18.742;2024-03-02T05:55:29;39.70;;;21.90;;
55190;SDS011;41070;50.360;18.742;2024-03-02T05:57:56;41.70;;;22.00;;
55190;SDS011;41070;50.360;18.742;2024-03-02T06:00:38;39.90;;;20.10;;
55190;SDS011;41070;50.360;18.742;2024-03-02T06:03:05;41.30;;;21.80;;
55190;SDS011;41070;50.360;18.742;2024-03-02T06:05:33;38.60;;;22.30;;
55190;SDS011;41070;50.360;18.742;2024-03-02T06:08:04;40.00;;;21.60;;
55190;SDS011;41070;50.360;18.742;2024-03-02T06:10:31;42.50;;;25.10;;
55190;SDS011;41070;50.360;18.742;2024-03-02T06:13:02;41.40;;;24.30;;
55190;SDS011;41070;50.360;18.742;2024-03-02T06:15:29;46.30;;;25.50;;
55190;SDS011;41070;50.360;18.742;2024-03-02T06:18:00;42.90;;;24.70;;
55190;SDS011;41070;50.360;18.742;2024-03-02T06:20:52;41.70;;;24.40;;
55190;SDS011;41070;50.360;18.742;2024-03-02T06:23:22;43.50;;;25.30;;
55190;SDS011;41070;50.360;18.742;2024-03-02T06:25:50;49.70;;;26.30;;
55190;SDS011;41070;50.360;18.742;2024-03-02T06:30:53;50.50;;;27.10;;
55190;SDS011;41070;50.360;18.742;2024-03-02T06:33:20;51.40;;;27.30;;
55190;SDS011;41070;50.360;18.742;2024-03-02T06:35:47;58.60;;;28.60;;
55190;SDS011;41070;50.360;18.742;2024-03-02T06:38:14;57.10;;;28.70;;
55190;SDS011;41070;50.360;18.742;2024-03-02T06:40:41;51.30;;;28.60;;
55190;SDS011;41070;50.360;18.742;2024-03-02T06:43:08;47.70;;;26.40;;
55190;SDS011;41070;50.360;18.742;2024-03-02T06:45:44;49.90;;;26.70;;
55190;SDS011;41070;50.360;18.742;2024-03-02T06:48:11;47.90;;;24.50;;
55190;SDS011;41070;50.360;18.742;2024-03-02T06:50:47;44.20;;;23.80;;
55190;SDS011;41070;50.360;18.742;2024-03-02T06:53:19;42.30;;;23.50;;
55190;SDS011;41070;50.360;18.742;2024-03-02T06:55:51;42.80;;;23.00;;
55190;SDS011;41070;50.360;18.742;2024-03-02T06:58:20;48.40;;;24.60;;
55190;SDS011;41070;50.360;18.742;2024-03-02T07:00:47;46.00;;;23.70;;
55190;SDS011;41070;50.360;18.742;2024-03-02T07:06:45;43.50;;;23.70;;
55190;SDS011;41070;50.360;18.742;2024-03-02T07:09:11;45.00;;;26.30;;
55190;SDS011;41070;50.360;18.742;2024-03-02T07:11:45;44.60;;;24.60;;
55190;SDS011;41070;50.360;18.742;2024-03-02T07:14:13;44.20;;;24.60;;
55190;SDS011;41070;50.360;18.742;2024-03-02T07:16:40;37.30;;;22.90;;
55190;SDS011;41070;50.360;18.742;2024-03-02T07:19:08;38.70;;;23.20;;
55190;SDS011;41070;50.360;18.742;2024-03-02T07:21:35;40.10;;;22.50;;
55190;SDS011;41070;50.360;18.742;2024-03-02T07:24:02;43.20;;;21.90;;
55190;SDS011;41070;50.360;18.742;2024-03-02T07:26:29;41.30;;;22.00;;
55190;SDS011;41070;50.360;18.742;2024-03-02T07:28:57;41.80;;;22.40;;
55190;SDS011;41070;50.360;18.742;2024-03-02T07:31:23;42.30;;;24.30;;
55190;SDS011;41070;50.360;18.742;2024-03-02T07:33:50;35.90;;;21.90;;
55190;SDS011;41070;50.360;18.742;2024-03-02T07:36:17;37.90;;;22.70;;
55190;SDS011;41070;50.360;18.742;2024-03-02T07:38:45;40.30;;;22.20;;
55190;SDS011;41070;50.360;18.742;2024-03-02T07:41:16;44.80;;;23.60;;
55190;SDS011;41070;50.360;18.742;2024-03-02T07:43:43;36.50;;;22.00;;
55190;SDS011;41070;50.360;18.742;2024-03-02T07:46:10;38.10;;;22.50;;
55190;SDS011;41070;50.360;18.742;2024-03-02T07:48:37;40.80;;;22.60;;
55190;SDS011;41070;50.360;18.742;2024-03-02T07:51:04;42.50;;;21.20;;
55190;SDS011;41070;50.360;18.742;2024-03-02T07:53:30;44.60;;;23.30;;
55190;SDS011;41070;50.360;18.742;2024-03-02T07:55:57;41.40;;;21.90;;
55190;SDS011;41070;50.360;18.742;2024-03-02T07:58:28;41.60;;;22.80;;
55190;SDS011;41070;50.360;18.742;2024-03-02T08:00:56;41.50;;;23.60;;
55190;SDS011;41070;50.360;18.742;2024-03-02T08:05:49;42.00;;;22.70;;
55190;SDS011;41070;50.360;18.742;2024-03-02T08:08:15;40.10;;;21.90;;
55190;SDS011;41070;50.360;18.742;2024-03-02T08:13:09;41.70;;;22.40;;
55190;SDS011;41070;50.360;18.742;2024-03-02T08:18:02;38.00;;;21.10;;
55190;SDS011;41070;50.360;18.742;2024-03-02T08:20:28;43.60;;;25.60;;
55190;SDS011;41070;50.360;18.742;2024-03-02T08:25:22;42.00;;;23.80;;
55190;SDS011;41070;50.360;18.742;2024-03-02T08:27:48;46.40;;;23.60;;
55190;SDS011;41070;50.360;18.742;2024-03-02T08:30:15;42.00;;;23.50;;
55190;SDS011;41070;50.360;18.742;2024-03-02T08:32:43;55.90;;;24.30;;
55190;SDS011;41070;50.360;18.742;2024-03-02T08:35:13;39.50;;;23.40;;
55190;SDS011;41070;50.360;18.742;2024-03-02T08:37:40;44.20;;;24.10;;
55190;SDS011;41070;50.360;18.742;2024-03-02T08:40:08;45.40;;;26.00;;
55190;SDS011;41070;50.360;18.742;2024-03-02T08:42:34;44.80;;;25.30;;
55190;SDS011;41070;50.360;18.742;2024-03-02T08:47:27;40.50;;;24.70;;
55190;SDS011;41070;50.360;18.742;2024-03-02T08:49:54;44.00;;;24.30;;
55190;SDS011;41070;50.360;18.742;2024-03-02T08:52:27;42.80;;;24.50;;
55190;SDS011;41070;50.360;18.742;2024-03-02T08:54:54;49.20;;;24.90;;
55190;SDS011;41070;50.360;18.742;2024-03-02T08:57:21;43.30;;;24.60;;
55190;SDS011;41070;50.360;18.742;2024-03-02T08:59:48;47.90;;;24.60;;
55190;SDS011;41070;50.360;18.742;2024-03-02T09:02:14;48.50;;;27.10;;
55190;SDS011;41070;50.360;18.742;2024-03-02T09:07:07;47.00;;;25.30;;
55190;SDS011;41070;50.360;18.742;2024-03-02T09:09:34;42.20;;;24.10;;
55190;SDS011;41070;50.360;18.742;2024-03-02T09:12:47;43.10;;;24.20;;
55190;SDS011;41070;50.360;18.742;2024-03-02T09:15:14;49.40;;;26.60;;
55190;SDS011;41070;50.360;18.742;2024-03-02T09:17:42;48.40;;;25.80;;
55190;SDS011;41070;50.360;18.742;2024-03-02T09:20:08;45.80;;;25.10;;
55190;SDS011;41070;50.360;18.742;2024-03-02T09:22:36;44.30;;;23.60;;
55190;SDS011;41070;50.360;18.742;2024-03-02T09:25:03;41.60;;;24.20;;
55190;SDS011;41070;50.360;18.742;2024-03-02T09:27:30;44.40;;;24.50;;
55190;SDS011;41070;50.360;18.742;2024-03-02T09:29:56;40.70;;;22.90;;
55190;SDS011;41070;50.360;18.742;2024-03-02T09:32:23;44.30;;;24.90;;
55190;SDS011;41070;50.360;18.742;2024-03-02T09:34:50;46.70;;;26.10;;
55190;SDS011;41070;50.360;18.742;2024-03-02T09:37:33;47.00;;;26.40;;
55190;SDS011;41070;50.360;18.742;2024-03-02T09:40:00;52.00;;;26.50;;
55190;SDS011;41070;50.360;18.742;2024-03-02T09:42:26;52.70;;;28.20;;
55190;SDS011;41070;50.360;18.742;2024-03-02T09:44:53;57.30;;;31.30;;
55190;SDS011;41070;50.360;18.742;2024-03-02T09:47:20;52.40;;;29.50;;
55190;SDS011;41070;50.360;18.742;2024-03-02T09:49:47;63.10;;;30.80;;
55190;SDS011;41070;50.360;18.742;2024-03-02T09:52:14;57.80;;;30.50;;
55190;SDS011;41070;50.360;18.742;2024-03-02T09:54:48;54.70;;;29.30;;
55190;SDS011;41070;50.360;18.742;2024-03-02T09:57:15;49.70;;;27.10;;
55190;SDS011;41070;50.360;18.742;2024-03-02T09:59:42;48.10;;;26.30;;
55190;SDS011;41070;50.360;18.742;2024-03-02T10:02:11;50.00;;;25.90;;
55190;SDS011;41070;50.360;18.742;2024-03-02T10:04:37;49.30;;;26.00;;
55190;SDS011;41070;50.360;18.742;2024-03-02T10:07:11;47.40;;;25.70;;
55190;SDS011;41070;50.360;18.742;2024-03-02T10:09:45;39.50;;;22.20;;
55190;SDS011;41070;50.360;18.742;2024-03-02T10:12:13;38.90;;;22.60;;
55190;SDS011;41070;50.360;18.742;2024-03-02T10:14:41;39.90;;;23.90;;
55190;SDS011;41070;50.360;18.742;2024-03-02T10:17:08;42.30;;;23.70;;
55190;SDS011;41070;50.360;18.742;2024-03-02T10:19:36;41.20;;;23.90;;
55190;SDS011;41070;50.360;18.742;2024-03-02T10:22:04;45.40;;;24.40;;
55190;SDS011;41070;50.360;18.742;2024-03-02T10:24:36;42.20;;;22.20;;
55190;SDS011;41070;50.360;18.742;2024-03-02T10:27:07;39.70;;;23.20;;
55190;SDS011;41070;50.360;18.742;2024-03-02T10:29:41;36.70;;;22.60;;
55190;SDS011;41070;50.360;18.742;2024-03-02T10:32:08;43.60;;;25.50;;
55190;SDS011;41070;50.360;18.742;2024-03-02T10:34:37;42.70;;;24.70;;
55190;SDS011;41070;50.360;18.742;2024-03-02T10:37:05;42.20;;;24.60;;
55190;SDS011;41070;50.360;18.742;2024-03-02T10:39:34;48.00;;;27.40;;
55190;SDS011;41070;50.360;18.742;2024-03-02T10:42:12;49.00;;;27.20;;
55190;SDS011;41070;50.360;18.742;2024-03-02T10:44:40;45.30;;;26.50;;
55190;SDS011;41070;50.360;18.742;2024-03-02T10:47:08;47.10;;;26.90;;
55190;SDS011;41070;50.360;18.742;2024-03-02T10:49:35;48.40;;;26.80;;
55190;SDS011;41070;50.360;18.742;2024-03-02T10:52:04;44.70;;;27.40;;
55190;SDS011;41070;50.360;18.742;2024-03-02T10:54:31;43.50;;;25.30;;
55190;SDS011;41070;50.360;18.742;2024-03-02T10:57:01;50.90;;;27.20;;
55190;SDS011;41070;50.360;18.742;2024-03-02T10:59:52;43.60;;;25.70;;
55190;SDS011;41070;50.360;18.742;2024-03-02T11:02:22;42.40;;;26.60;;
55190;SDS011;41070;50.360;18.742;2024-03-02T11:04:51;43.80;;;26.00;;
55190;SDS011;41070;50.360;18.742;2024-03-02T11:07:21;42.10;;;26.80;;
55190;SDS011;41070;50.360;18.742;2024-03-02T11:09:56;42.00;;;25.90;;
55190;SDS011;41070;50.360;18.742;2024-03-02T11:12:28;51.60;;;27.20;;
55190;SDS011;41070;50.360;18.742;2024-03-02T11:15:45;42.30;;;27.10;;
55190;SDS011;41070;50.360;18.742;2024-03-02T11:18:12;41.40;;;25.30;;
55190;SDS011;41070;50.360;18.742;2024-03-02T11:20:40;39.10;;;25.10;;
55190;SDS011;41070;50.360;18.742;2024-03-02T11:23:08;39.90;;;23.30;;
55190;SDS011;41070;50.360;18.742;2024-03-02T11:25:35;43.00;;;25.10;;
55190;SDS011;41070;50.360;18.742;2024-03-02T11:28:06;37.60;;;23.30;;
55190;SDS011;41070;50.360;18.742;2024-03-02T11:33:04;39.90;;;22.20;;
55190;SDS011;41070;50.360;18.742;2024-03-02T11:35:35;45.00;;;25.40;;
55190;SDS011;41070;50.360;18.742;2024-03-02T11:38:04;40.90;;;24.60;;
55190;SDS011;41070;50.360;18.742;2024-03-02T11:40:33;40.00;;;23.00;;
55190;SDS011;41070;50.360;18.742;2024-03-02T11:43:00;37.10;;;21.20;;
55190;SDS011;41070;50.360;18.742;2024-03-02T11:45:27;39.60;;;23.00;;
55190;SDS011;41070;50.360;18.742;2024-03-02T11:47:54;34.80;;;21.30;;
55190;SDS011;41070;50.360;18.742;2024-03-02T11:50:33;37.10;;;21.20;;
55190;SDS011;41070;50.360;18.742;2024-03-02T11:53:01;36.90;;;21.00;;
55190;SDS011;41070;50.360;18.742;2024-03-02T11:55:28;37.50;;;20.50;;
55190;SDS011;41070;50.360;18.742;2024-03-02T11:57:56;28.70;;;17.00;;
55190;SDS011;41070;50.360;18.742;2024-03-02T12:00:25;28.50;;;17.70;;
55190;SDS011;41070;50.360;18.742;2024-03-02T12:03:05;28.10;;;16.70;;
55190;SDS011;41070;50.360;18.742;2024-03-02T12:05:33;27.20;;;16.90;;
55190;SDS011;41070;50.360;18.742;2024-03-02T12:08:04;25.90;;;16.30;;
55190;SDS011;41070;50.360;18.742;2024-03-02T12:11:05;27.90;;;15.20;;
55190;SDS011;41070;50.360;18.742;2024-03-02T12:13:34;23.50;;;14.80;;
55190;SDS011;41070;50.360;18.742;2024-03-02T12:16:00;23.80;;;15.30;;
55190;SDS011;41070;50.360;18.742;2024-03-02T12:18:29;27.30;;;14.80;;
55190;SDS011;41070;50.360;18.742;2024-03-02T12:23:24;27.00;;;15.20;;
55190;SDS011;41070;50.360;18.742;2024-03-02T12:25:50;28.20;;;15.90;;
55190;SDS011;41070;50.360;18.742;2024-03-02T12:28:17;23.50;;;13.30;;
55190;SDS011;41070;50.360;18.742;2024-03-02T12:30:43;22.80;;;13.70;;
55190;SDS011;41070;50.360;18.742;2024-03-02T12:33:11;21.90;;;13.80;;
55190;SDS011;41070;50.360;18.742;2024-03-02T12:35:54;24.00;;;13.40;;
55190;SDS011;41070;50.360;18.742;2024-03-02T12:38:20;22.00;;;13.50;;
55190;SDS011;41070;50.360;18.742;2024-03-02T12:41:02;21.80;;;13.10;;
55190;SDS011;41070;50.360;18.742;2024-03-02T12:43:31;22.60;;;11.70;;
55190;SDS011;41070;50.360;18.742;2024-03-02T12:45:58;23.50;;;13.50;;
55190;SDS011;41070;50.360;18.742;2024-03-02T12:48:28;21.60;;;12.80;;
55190;SDS011;41070;50.360;18.742;2024-03-02T12:50:55;20.30;;;11.70;;
55190;SDS011;41070;50.360;18.742;2024-03-02T12:53:21;17.50;;;11.60;;
55190;SDS011;41070;50.360;18.742;2024-03-02T12:55:48;22.10;;;12.80;;
55190;SDS011;41070;50.360;18.742;2024-03-02T12:58:21;24.30;;;14.40;;
55190;SDS011;41070;50.360;18.742;2024-03-02T13:00:48;21.60;;;12.50;;
55190;SDS011;41070;50.360;18.742;2024-03-02T13:03:17;24.00;;;13.20;;
55190;SDS011;41070;50.360;18.742;2024-03-02T13:05:49;23.10;;;12.80;;
55190;SDS011;41070;50.360;18.742;2024-03-02T13:08:16;22.30;;;13.00;;
55190;SDS011;41070;50.360;18.742;2024-03-02T13:10:42;23.50;;;12.60;;
55190;SDS011;41070;50.360;18.742;2024-03-02T13:13:09;19.00;;;11.40;;
55190;SDS011;41070;50.360;18.742;2024-03-02T13:15:36;20.50;;;11.80;;
55190;SDS011;41070;50.360;18.742;2024-03-02T13:18:04;21.70;;;12.80;;
55190;SDS011;41070;50.360;18.742;2024-03-02T13:20:33;17.80;;;10.80;;
55190;SDS011;41070;50.360;18.742;2024-03-02T13:23:00;24.60;;;12.80;;
55190;SDS011;41070;50.360;18.742;2024-03-02T13:25:27;25.50;;;13.10;;
55190;SDS011;41070;50.360;18.742;2024-03-02T13:27:53;18.60;;;11.00;;
55190;SDS011;41070;50.360;18.742;2024-03-02T13:30:21;17.50;;;11.60;;
55190;SDS011;41070;50.360;18.742;2024-03-02T13:32:48;18.60;;;12.20;;
55190;SDS011;41070;50.360;18.742;2024-03-02T13:35:14;24.50;;;13.60;;
55190;SDS011;41070;50.360;18.742;2024-03-02T13:40:07;17.90;;;10.30;;
55190;SDS011;41070;50.360;18.742;2024-03-02T13:42:41;21.60;;;12.60;;
55190;SDS011;41070;50.360;18.742;2024-03-02T13:45:08;23.10;;;12.50;;
55190;SDS011;41070;50.360;18.742;2024-03-02T13:47:35;21.70;;;13.30;;
55190;SDS011;41070;50.360;18.742;2024-03-02T13:52:31;20.90;;;12.50;;
55190;SDS011;41070;50.360;18.742;2024-03-02T13:54:58;22.30;;;12.20;;
55190;SDS011;41070;50.360;18.742;2024-03-02T13:57:25;19.80;;;12.80;;
55190;SDS011;41070;50.360;18.742;2024-03-02T13:59:51;24.00;;;12.60;;
55190;SDS011;41070;50.360;18.742;2024-03-02T14:02:18;24.30;;;14.40;;
55190;SDS011;41070;50.360;18.742;2024-03-02T14:04:44;24.10;;;13.30;;
55190;SDS011;41070;50.360;18.742;2024-03-02T14:07:11;19.10;;;12.10;;
55190;SDS011;41070;50.360;18.742;2024-03-02T14:09:37;20.00;;;12.60;;
55190;SDS011;41070;50.360;18.742;2024-03-02T14:12:05;22.60;;;13.40;;
55190;SDS011;41070;50.360;18.742;2024-03-02T14:14:34;21.40;;;13.10;;
55190;SDS011;41070;50.360;18.742;2024-03-02T14:17:01;23.00;;;12.80;;
55190;SDS011;41070;50.360;18.742;2024-03-02T14:19:30;19.80;;;13.00;;
55190;SDS011;41070;50.360;18.742;2024-03-02T14:21:56;21.50;;;13.20;;
55190;SDS011;41070;50.360;18.742;2024-03-02T14:24:23;21.60;;;13.50;;
55190;SDS011;41070;50.360;18.742;2024-03-02T14:26:51;24.00;;;14.20;;
55190;SDS011;41070;50.360;18.742;2024-03-02T14:29:19;24.30;;;14.50;;
55190;SDS011;41070;50.360;18.742;2024-03-02T14:31:45;24.00;;;15.10;;
55190;SDS011;41070;50.360;18.742;2024-03-02T14:34:14;23.70;;;13.80;;
55190;SDS011;41070;50.360;18.742;2024-03-02T14:36:41;27.60;;;14.60;;
55190;SDS011;41070;50.360;18.742;2024-03-02T14:39:09;26.30;;;15.60;;
55190;SDS011;41070;50.360;18.742;2024-03-02T14:41:36;22.40;;;15.70;;
55190;SDS011;41070;50.360;18.742;2024-03-02T14:44:03;25.60;;;14.30;;
55190;SDS011;41070;50.360;18.742;2024-03-02T14:46:30;28.90;;;16.60;;
55190;SDS011;41070;50.360;18.742;2024-03-02T14:48:56;22.80;;;15.30;;
55190;SDS011;41070;50.360;18.742;2024-03-02T14:51:23;25.10;;;16.10;;